createdAt,value
2022-09-03T00:00:09.526Z,20.00
2022-09-03T00:00:25.529Z,20.00
2022-09-03T00:00:38.089Z,20.00
2022-09-03T00:00:52.889Z,20.00
2022-09-03T00:01:09.206Z,20.00
2022-09-03T00:01:25.759Z,20.00
2022-09-03T00:01:40.545Z,20.00
2022-09-03T00:01:59.279Z,20.00
2022-09-03T00:02:33.479Z,20.00
2022-09-03T00:02:52.650Z,20.00
2022-09-03T00:03:41.398Z,20.00
2022-09-03T00:03:59.294Z,20.00
2022-09-03T00:04:23.844Z,20.00
2022-09-03T00:04:58.281Z,20.00
2022-09-03T00:05:29.812Z,20.00
2022-09-03T00:06:09.652Z,20.00
2022-09-03T00:06:28.629Z,20.00
2022-09-03T00:06:46.930Z,20.00
2022-09-03T00:07:02.097Z,20.00
2022-09-03T00:07:20.724Z,20.00
2022-09-03T00:07:37.666Z,20.00
2022-09-03T00:08:14.867Z,20.00
2022-09-03T00:08:38.987Z,20.00
2022-09-03T00:09:07.469Z,20.00
2022-09-03T00:09:48.155Z,20.00
2022-09-03T00:10:05.252Z,20.00
2022-09-03T00:10:29.797Z,20.00
2022-09-03T00:10:58.212Z,20.00
2022-09-03T00:11:26.101Z,20.00
2022-09-03T00:12:01.782Z,20.00
2022-09-03T00:12:24.884Z,20.00
2022-09-03T00:12:40.004Z,20.00
2022-09-03T00:12:52.521Z,20.00
2022-09-03T00:13:04.948Z,20.00
2022-09-03T00:13:20.208Z,20.00
2022-09-03T00:13:40.225Z,20.00
2022-09-03T00:14:03.229Z,20.00
2022-09-03T00:14:19.493Z,20.10
2022-09-03T00:14:36.636Z,20.00
2022-09-03T00:15:07.225Z,20.10
2022-09-03T00:15:20.516Z,20.00
2022-09-03T00:15:33.209Z,20.00
2022-09-03T00:15:44.953Z,20.10
2022-09-03T00:15:57.433Z,20.10
2022-09-03T00:16:11.620Z,20.00
2022-09-03T00:16:24.548Z,20.00
2022-09-03T00:16:49.264Z,20.00
2022-09-03T00:17:05.939Z,20.00
2022-09-03T00:17:23.135Z,20.10
2022-09-03T00:17:42.777Z,20.00
2022-09-03T00:18:01.235Z,20.00
2022-09-03T00:18:16.396Z,20.00
2022-09-03T00:18:30.270Z,20.10
2022-09-03T00:18:45.101Z,20.00
2022-09-03T00:18:59.843Z,20.00
2022-09-03T00:19:11.829Z,20.00
2022-09-03T00:19:27.547Z,20.10
2022-09-03T00:20:22.024Z,20.10
2022-09-03T00:20:41.364Z,20.00
2022-09-03T00:20:59.453Z,20.10
2022-09-03T00:21:32.287Z,20.00
2022-09-03T00:21:45.818Z,20.10
2022-09-03T00:22:00.324Z,20.00
2022-09-03T00:22:27.467Z,20.00
2022-09-03T00:22:44.782Z,20.00
2022-09-03T00:22:58.578Z,20.00
2022-09-03T00:23:15.528Z,20.00
2022-09-03T00:23:28.585Z,20.00
2022-09-03T00:23:42.174Z,20.00
2022-09-03T00:23:53.876Z,20.00
2022-09-03T00:24:07.861Z,20.00
2022-09-03T00:24:31.278Z,20.00
2022-09-03T00:24:43.025Z,20.00
2022-09-03T00:24:54.758Z,20.00
2022-09-03T00:25:10.924Z,20.00
2022-09-03T00:25:39.775Z,20.00
2022-09-03T00:26:14.780Z,20.00
2022-09-03T00:26:28.922Z,20.00
2022-09-03T00:26:42.765Z,20.00
2022-09-03T00:26:58.257Z,20.00
2022-09-03T00:27:23.968Z,20.00
2022-09-03T00:27:37.981Z,20.00
2022-09-03T00:27:52.023Z,20.00
2022-09-03T00:28:07.230Z,20.00
2022-09-03T00:28:25.857Z,20.00
2022-09-03T00:29:00.872Z,20.00
2022-09-03T00:29:21.282Z,20.00
2022-09-03T00:29:56.626Z,20.00
2022-09-03T00:30:14.763Z,20.00
2022-09-03T00:30:30.737Z,20.00
2022-09-03T00:30:42.546Z,20.00
2022-09-03T00:31:27.427Z,20.00
2022-09-03T00:31:51.288Z,20.00
2022-09-03T00:32:09.176Z,20.00
2022-09-03T00:32:41.464Z,20.00
2022-09-03T00:33:01.903Z,20.00
2022-09-03T00:33:24.759Z,20.00
2022-09-03T00:33:36.521Z,20.00
2022-09-03T00:33:48.223Z,20.00
2022-09-03T00:34:02.875Z,20.00
2022-09-03T00:34:30.700Z,20.00
2022-09-03T00:34:44.755Z,20.00
2022-09-03T00:35:02.265Z,20.00
2022-09-03T00:35:24.871Z,20.00
2022-09-03T00:35:47.777Z,20.00
2022-09-03T00:36:02.207Z,20.00
2022-09-03T00:36:23.440Z,20.00
2022-09-03T00:36:43.625Z,20.00
2022-09-03T00:36:55.406Z,20.00
2022-09-03T00:37:14.472Z,20.00
2022-09-03T00:37:37.978Z,20.00
2022-09-03T00:37:52.494Z,20.00
2022-09-03T00:38:04.343Z,20.00
2022-09-03T00:38:16.244Z,20.00
2022-09-03T00:38:29.905Z,20.00
2022-09-03T00:38:42.018Z,20.00
2022-09-03T00:38:53.760Z,20.00
2022-09-03T00:39:07.313Z,20.00
2022-09-03T00:39:20.510Z,20.00
2022-09-03T00:39:32.366Z,20.00
2022-09-03T00:39:44.420Z,20.00
2022-09-03T00:39:56.477Z,20.00
2022-09-03T00:40:14.308Z,20.00
2022-09-03T00:40:51.324Z,20.00
2022-09-03T00:41:31.328Z,20.00
2022-09-03T00:42:24.413Z,20.00
2022-09-03T00:42:36.148Z,20.00
2022-09-03T00:43:12.240Z,20.10
2022-09-03T00:43:48.812Z,20.00
2022-09-03T00:44:13.527Z,20.10
2022-09-03T00:44:45.132Z,20.10
2022-09-03T00:44:56.972Z,20.00
2022-09-03T00:45:35.178Z,20.00
2022-09-03T00:45:57.601Z,20.00
2022-09-03T00:46:19.572Z,20.00
2022-09-03T00:46:52.970Z,20.10
2022-09-03T00:47:18.334Z,20.10
2022-09-03T00:47:37.591Z,20.00
2022-09-03T00:48:06.841Z,20.10
2022-09-03T00:48:28.079Z,20.00
2022-09-03T00:49:43.125Z,20.00
2022-09-03T00:50:03.007Z,20.00
2022-09-03T00:50:36.309Z,20.00
2022-09-03T00:51:02.033Z,20.00
2022-09-03T00:51:30.277Z,20.00
2022-09-03T00:51:54.780Z,20.00
2022-09-03T00:52:23.108Z,19.90
2022-09-03T00:53:05.709Z,20.00
2022-09-03T00:53:45.337Z,19.90
2022-09-03T00:54:09.044Z,19.90
2022-09-03T00:54:41.925Z,19.90
2022-09-03T01:00:34.307Z,19.90
2022-09-03T01:00:46.150Z,19.90
2022-09-03T01:00:58.125Z,19.90
2022-09-03T01:01:42.450Z,19.90
2022-09-03T01:02:02.499Z,19.90
2022-09-03T01:02:22.727Z,19.90
2022-09-03T01:02:46.234Z,19.90
2022-09-03T01:03:08.934Z,19.90
2022-09-03T01:03:51.603Z,19.90
2022-09-03T01:04:21.932Z,19.90
2022-09-03T01:04:45.821Z,19.90
2022-09-03T01:05:10.450Z,19.90
2022-09-03T01:05:34.352Z,19.90
2022-09-03T01:06:11.051Z,19.90
2022-09-03T01:06:45.676Z,19.90
2022-09-03T01:07:16.055Z,19.90
2022-09-03T01:07:52.381Z,19.90
2022-09-03T01:08:33.028Z,19.90
2022-09-03T01:08:51.618Z,19.90
2022-09-03T01:09:29.634Z,19.90
2022-09-03T01:09:53.908Z,19.90
2022-09-03T01:10:11.567Z,19.90
2022-09-03T01:10:27.435Z,19.90
2022-09-03T01:10:56.557Z,19.80
2022-09-03T01:11:32.369Z,19.90
2022-09-03T01:12:06.921Z,19.90
2022-09-03T01:12:33.286Z,19.80
2022-09-03T01:13:21.956Z,19.80
2022-09-03T01:13:41.580Z,19.80
2022-09-03T01:14:11.505Z,19.80
2022-09-03T01:14:43.972Z,19.80
2022-09-03T01:15:04.452Z,19.80
2022-09-03T01:15:37.579Z,19.80
2022-09-03T01:16:16.884Z,19.90
2022-09-03T01:16:49.066Z,19.90
2022-09-03T01:17:24.797Z,19.90
2022-09-03T01:17:55.165Z,19.90
2022-09-03T01:18:12.432Z,19.90
2022-09-03T01:18:39.828Z,19.90
2022-09-03T01:18:54.348Z,19.90
2022-09-03T01:19:11.865Z,19.90
2022-09-03T01:19:45.927Z,19.90
2022-09-03T01:20:01.841Z,19.90
2022-09-03T01:20:28.779Z,19.90
2022-09-03T01:21:04.464Z,19.90
2022-09-03T01:21:24.670Z,19.90
2022-09-03T01:21:56.295Z,19.90
2022-09-03T01:22:07.959Z,19.90
2022-09-03T01:22:44.884Z,19.80
2022-09-03T01:23:35.935Z,19.80
2022-09-03T01:24:18.611Z,19.80
2022-09-03T01:25:12.236Z,19.80
2022-09-03T01:25:43.852Z,19.80
2022-09-03T01:26:04.727Z,19.80
2022-09-03T01:26:28.658Z,19.80
2022-09-03T01:26:43.464Z,19.80
2022-09-03T01:27:15.352Z,19.80
2022-09-03T01:27:27.241Z,19.80
2022-09-03T01:28:02.304Z,19.80
2022-09-03T01:28:34.947Z,19.80
2022-09-03T01:28:54.730Z,19.70
2022-09-03T01:29:24.287Z,19.80
2022-09-03T01:30:04.081Z,19.80
2022-09-03T01:30:19.383Z,19.80
2022-09-03T01:30:31.564Z,19.80
2022-09-03T01:30:47.451Z,19.80
2022-09-03T01:31:03.336Z,19.80
2022-09-03T01:31:51.937Z,19.80
2022-09-03T01:32:32.951Z,19.80
2022-09-03T01:32:56.718Z,19.80
2022-09-03T01:33:32.815Z,19.80
2022-09-03T01:34:04.884Z,19.80
2022-09-03T01:34:22.456Z,19.80
2022-09-03T01:34:54.628Z,19.80
2022-09-03T01:35:16.386Z,19.80
2022-09-03T01:35:39.301Z,19.70
2022-09-03T01:35:57.244Z,19.70
2022-09-03T01:36:42.241Z,19.80
2022-09-03T01:37:11.780Z,19.70
2022-09-03T01:37:51.723Z,19.70
2022-09-03T01:38:35.817Z,19.70
2022-09-03T01:38:51.981Z,19.70
2022-09-03T01:39:05.829Z,19.70
2022-09-03T01:39:33.700Z,19.70
2022-09-03T01:40:06.888Z,19.70
2022-09-03T01:40:28.266Z,19.70
2022-09-03T01:41:23.675Z,19.70
2022-09-03T01:42:15.882Z,19.70
2022-09-03T01:42:36.784Z,19.70
2022-09-03T01:42:51.221Z,19.70
2022-09-03T01:43:32.385Z,19.80
2022-09-03T01:44:09.484Z,19.80
2022-09-03T01:44:32.753Z,19.80
2022-09-03T01:45:09.675Z,19.80
2022-09-03T01:45:46.744Z,19.80
2022-09-03T01:46:08.377Z,19.80
2022-09-03T01:46:24.138Z,19.80
2022-09-03T01:46:40.166Z,19.70
2022-09-03T01:47:16.575Z,19.70
2022-09-03T01:49:24.427Z,19.70
2022-09-03T01:49:41.665Z,19.70
2022-09-03T01:50:19.087Z,19.70
2022-09-03T01:50:43.212Z,19.70
2022-09-03T01:51:00.835Z,19.70
2022-09-03T01:51:25.573Z,19.70
2022-09-03T01:51:37.299Z,19.70
2022-09-03T01:52:15.888Z,19.70
2022-09-03T01:53:32.554Z,19.70
2022-09-03T01:54:21.076Z,19.70
2022-09-03T01:54:42.472Z,19.70
2022-09-03T01:55:37.309Z,19.70
2022-09-03T01:56:37.068Z,19.70
2022-09-03T01:57:35.444Z,19.70
2022-09-03T02:17:01.870Z,19.30
2022-09-03T02:17:14.008Z,19.30
2022-09-03T02:17:26.124Z,19.30
2022-09-03T02:17:38.186Z,19.30
2022-09-03T02:17:50.573Z,19.30
2022-09-03T02:18:04.109Z,19.30
2022-09-03T02:18:37.208Z,19.40
2022-09-03T02:18:51.592Z,19.30
2022-09-03T02:19:08.208Z,19.30
2022-09-03T02:19:20.346Z,19.30
2022-09-03T02:19:32.813Z,19.20
2022-09-03T02:19:45.876Z,19.20
2022-09-03T02:19:58.353Z,19.20
2022-09-03T02:21:03.623Z,19.20
2022-09-03T02:21:17.313Z,19.20
2022-09-03T02:21:34.062Z,19.20
2022-09-03T02:22:43.274Z,19.20
2022-09-03T02:22:55.407Z,19.20
2022-09-03T02:23:07.289Z,19.20
2022-09-03T02:23:45.046Z,19.20
2022-09-03T02:23:57.133Z,19.20
2022-09-03T02:24:09.811Z,19.20
2022-09-03T02:24:21.934Z,19.20
2022-09-03T02:24:34.270Z,19.20
2022-09-03T02:24:46.379Z,19.20
2022-09-03T02:25:30.078Z,19.30
2022-09-03T02:26:11.404Z,19.30
2022-09-03T02:26:23.889Z,19.20
2022-09-03T02:26:35.757Z,19.20
2022-09-03T02:26:47.678Z,19.20
2022-09-03T02:26:59.494Z,19.20
2022-09-03T02:27:11.265Z,19.20
2022-09-03T02:27:23.042Z,19.10
2022-09-03T02:27:35.100Z,19.20
2022-09-03T02:27:48.422Z,19.20
2022-09-03T02:28:00.293Z,19.20
2022-09-03T02:28:23.224Z,19.20
2022-09-03T02:28:35.094Z,19.10
2022-09-03T02:28:47.860Z,19.20
2022-09-03T02:29:00.030Z,19.10
2022-09-03T02:29:12.011Z,19.10
2022-09-03T02:29:24.189Z,19.10
2022-09-03T02:29:35.998Z,19.10
2022-09-03T02:29:48.105Z,19.10
2022-09-03T02:30:00.197Z,19.10
2022-09-03T02:30:12.244Z,19.10
2022-09-03T02:30:25.227Z,19.10
2022-09-03T02:30:37.031Z,19.10
2022-09-03T02:30:49.056Z,19.10
2022-09-03T02:31:00.973Z,19.10
2022-09-03T02:31:12.880Z,19.10
2022-09-03T02:31:24.816Z,19.10
2022-09-03T02:31:36.800Z,19.10
2022-09-03T02:31:48.549Z,19.10
2022-09-03T02:32:00.332Z,19.10
2022-09-03T02:32:12.475Z,19.10
2022-09-03T02:32:24.334Z,19.10
2022-09-03T02:32:36.110Z,19.10
2022-09-03T02:32:47.877Z,19.10
2022-09-03T02:33:00.215Z,19.10
2022-09-03T02:33:11.941Z,19.10
2022-09-03T02:33:23.787Z,19.10
2022-09-03T02:33:38.159Z,19.10
2022-09-03T02:33:51.545Z,19.20
2022-09-03T02:34:03.386Z,19.10
2022-09-03T02:34:15.199Z,19.10
2022-09-03T02:34:26.956Z,19.10
2022-09-03T02:34:38.722Z,19.10
2022-09-03T02:34:50.482Z,19.10
2022-09-03T02:35:02.232Z,19.10
2022-09-03T02:35:14.000Z,19.20
2022-09-03T02:35:25.786Z,19.10
2022-09-03T02:35:37.762Z,19.20
2022-09-03T02:35:49.589Z,19.20
2022-09-03T02:36:01.608Z,19.20
2022-09-03T02:36:15.420Z,19.10
2022-09-03T02:36:30.072Z,19.10
2022-09-03T02:36:45.922Z,19.20
2022-09-03T02:36:57.710Z,19.20
2022-09-03T02:37:14.180Z,19.20
2022-09-03T02:37:26.156Z,19.20
2022-09-03T02:37:37.836Z,19.20
2022-09-03T02:37:50.490Z,19.20
2022-09-03T02:38:12.552Z,19.20
2022-09-03T02:38:28.337Z,19.20
2022-09-03T02:38:41.826Z,19.20
2022-09-03T02:38:53.664Z,19.20
2022-09-03T02:39:05.672Z,19.20
2022-09-03T02:39:17.521Z,19.20
2022-09-03T02:39:29.336Z,19.20
2022-09-03T02:39:41.321Z,19.20
2022-09-03T02:39:53.227Z,19.20
2022-09-03T02:40:08.797Z,19.20
2022-09-03T02:40:20.565Z,19.20
2022-09-03T02:40:32.416Z,19.20
2022-09-03T02:40:44.658Z,19.20
2022-09-03T02:40:56.428Z,19.20
2022-09-03T02:41:08.154Z,19.20
2022-09-03T02:41:19.855Z,19.20
2022-09-03T02:41:31.808Z,19.20
2022-09-03T02:41:44.555Z,19.20
2022-09-03T02:41:57.463Z,19.20
2022-09-03T02:42:09.446Z,19.20
2022-09-03T02:42:22.109Z,19.20
2022-09-03T02:42:33.840Z,19.20
2022-09-03T02:42:46.016Z,19.20
2022-09-03T02:42:57.800Z,19.20
2022-09-03T02:43:14.020Z,19.20
2022-09-03T02:43:31.390Z,19.20
2022-09-03T02:43:49.698Z,19.20
2022-09-03T02:44:10.024Z,19.20
2022-09-03T02:44:31.809Z,19.20
2022-09-03T02:45:07.590Z,19.20
2022-09-03T02:45:21.169Z,19.20
2022-09-03T02:45:32.940Z,19.20
2022-09-03T02:45:48.777Z,19.20
2022-09-03T02:46:02.470Z,19.20
2022-09-03T02:46:17.620Z,19.20
2022-09-03T02:46:44.849Z,19.30
2022-09-03T02:47:04.106Z,19.30
2022-09-03T02:47:15.921Z,19.20
2022-09-03T02:47:31.031Z,19.30
2022-09-03T02:47:43.152Z,19.30
2022-09-03T02:48:00.042Z,19.30
2022-09-03T02:48:11.758Z,19.30
2022-09-03T02:48:24.093Z,19.30
2022-09-03T02:48:36.099Z,19.30
2022-09-03T02:48:47.855Z,19.30
2022-09-03T02:48:59.524Z,19.30
2022-09-03T02:49:11.389Z,19.30
2022-09-03T02:49:23.160Z,19.30
2022-09-03T02:49:35.100Z,19.30
2022-09-03T02:49:48.580Z,19.30
2022-09-03T02:50:00.308Z,19.40
2022-09-03T02:50:12.016Z,19.40
2022-09-03T02:50:23.944Z,19.30
2022-09-03T02:50:42.546Z,19.40
2022-09-03T02:50:54.257Z,19.40
2022-09-03T02:51:13.830Z,19.40
2022-09-03T02:51:26.276Z,19.40
2022-09-03T02:51:40.321Z,19.40
2022-09-03T02:51:58.065Z,19.40
2022-09-03T02:52:11.944Z,19.40
2022-09-03T02:52:23.637Z,19.40
2022-09-03T02:52:35.337Z,19.40
2022-09-03T02:52:47.100Z,19.40
2022-09-03T02:52:59.284Z,19.40
2022-09-03T02:53:10.984Z,19.30
2022-09-03T02:53:22.777Z,19.30
2022-09-03T02:53:34.522Z,19.30
2022-09-03T02:53:46.289Z,19.30
2022-09-03T02:53:57.959Z,19.30
2022-09-03T02:54:10.632Z,19.30
2022-09-03T02:54:22.358Z,19.30
2022-09-03T02:54:36.413Z,19.30
2022-09-03T02:54:48.093Z,19.40
2022-09-03T02:54:59.824Z,19.30
2022-09-03T02:55:11.910Z,19.30
2022-09-03T02:55:23.666Z,19.30
2022-09-03T02:55:36.077Z,19.40
2022-09-03T02:55:48.015Z,19.30
2022-09-03T02:56:00.714Z,19.40
2022-09-03T02:56:12.539Z,19.40
2022-09-03T02:56:27.896Z,19.40
2022-09-03T02:56:39.628Z,19.40
2022-09-03T02:56:51.986Z,19.40
2022-09-03T02:57:03.871Z,19.40
2022-09-03T02:57:16.305Z,19.40
2022-09-03T02:57:31.803Z,19.40
2022-09-03T02:57:43.608Z,19.40
2022-09-03T02:57:56.870Z,19.40
2022-09-03T02:58:08.941Z,19.40
2022-09-03T02:58:20.839Z,19.40
2022-09-03T02:58:32.714Z,19.40
2022-09-03T02:58:44.458Z,19.40
2022-09-03T02:58:56.312Z,19.40
2022-09-03T02:59:08.829Z,19.40
2022-09-03T02:59:22.820Z,19.40
2022-09-03T02:59:34.677Z,19.40
2022-09-03T02:59:46.442Z,19.40
2022-09-03T02:59:58.198Z,19.40
2022-09-03T03:00:10.189Z,19.40
2022-09-03T03:00:21.948Z,19.40
2022-09-03T03:00:33.702Z,19.40
2022-09-03T03:00:45.542Z,19.40
2022-09-03T03:00:57.403Z,19.40
2022-09-03T03:01:09.190Z,19.40
2022-09-03T03:01:23.821Z,19.40
2022-09-03T03:01:36.785Z,19.40
2022-09-03T03:01:48.832Z,19.40
2022-09-03T03:02:01.218Z,19.40
2022-09-03T03:02:13.382Z,19.40
2022-09-03T03:02:25.208Z,19.40
2022-09-03T03:02:38.451Z,19.40
2022-09-03T03:02:50.720Z,19.40
2022-09-03T03:03:03.868Z,19.40
2022-09-03T03:03:15.651Z,19.40
2022-09-03T03:03:27.407Z,19.40
2022-09-03T03:03:39.121Z,19.40
2022-09-03T03:03:50.966Z,19.40
2022-09-03T03:04:02.995Z,19.40
2022-09-03T03:04:14.844Z,19.40
2022-09-03T03:04:26.694Z,19.40
2022-09-03T03:04:38.533Z,19.40
2022-09-03T03:04:50.293Z,19.40
2022-09-03T03:05:02.244Z,19.40
2022-09-03T03:05:16.844Z,19.40
2022-09-03T03:05:36.382Z,19.40
2022-09-03T03:05:55.669Z,19.40
2022-09-03T03:06:07.440Z,19.40
2022-09-03T03:06:22.565Z,19.40
2022-09-03T03:06:34.257Z,19.40
2022-09-03T03:06:47.694Z,19.40
2022-09-03T03:06:59.701Z,19.40
2022-09-03T03:07:11.374Z,19.40
2022-09-03T03:07:23.144Z,19.40
2022-09-03T03:07:37.086Z,19.40
2022-09-03T03:07:48.839Z,19.40
2022-09-03T03:08:01.424Z,19.40
2022-09-03T03:08:15.269Z,19.40
2022-09-03T03:08:29.002Z,19.40
2022-09-03T03:08:40.739Z,19.40
2022-09-03T03:08:53.099Z,19.40
2022-09-03T03:09:07.043Z,19.40
2022-09-03T03:09:19.486Z,19.40
2022-09-03T03:09:31.181Z,19.40
2022-09-03T03:09:42.872Z,19.40
2022-09-03T03:09:54.673Z,19.40
2022-09-03T03:10:06.950Z,19.40
2022-09-03T03:10:18.745Z,19.40
2022-09-03T03:10:31.285Z,19.40
2022-09-03T03:10:47.229Z,19.40
2022-09-03T03:11:00.089Z,19.40
2022-09-03T03:11:11.793Z,19.50
2022-09-03T03:11:26.312Z,19.40
2022-09-03T03:11:40.203Z,19.40
2022-09-03T03:11:53.698Z,19.50
2022-09-03T03:12:05.477Z,19.40
2022-09-03T03:12:17.398Z,19.40
2022-09-03T03:12:29.992Z,19.40
2022-09-03T03:12:42.341Z,19.50
2022-09-03T03:12:54.620Z,19.50
2022-09-03T03:13:06.417Z,19.40
2022-09-03T03:13:18.390Z,19.50
2022-09-03T03:13:30.754Z,19.50
2022-09-03T03:13:42.778Z,19.50
2022-09-03T03:13:54.689Z,19.50
2022-09-03T03:14:06.634Z,19.50
2022-09-03T03:14:18.770Z,19.50
2022-09-03T03:14:31.561Z,19.50
2022-09-03T03:14:43.760Z,19.50
2022-09-03T03:14:55.457Z,19.50
2022-09-03T03:15:07.350Z,19.50
2022-09-03T03:15:19.496Z,19.50
2022-09-03T03:15:31.172Z,19.50
2022-09-03T03:15:42.999Z,19.50
2022-09-03T03:16:02.424Z,19.50
2022-09-03T03:16:15.261Z,19.50
2022-09-03T03:16:27.026Z,19.50
2022-09-03T03:16:38.963Z,19.50
2022-09-03T03:16:51.092Z,19.50
2022-09-03T03:17:02.960Z,19.50
2022-09-03T03:17:14.719Z,19.50
2022-09-03T03:17:26.401Z,19.50
2022-09-03T03:17:38.108Z,19.50
2022-09-03T03:17:49.804Z,19.50
2022-09-03T03:18:01.537Z,19.50
2022-09-03T03:18:14.065Z,19.50
2022-09-03T03:18:26.002Z,19.50
2022-09-03T03:18:37.841Z,19.50
2022-09-03T03:18:50.817Z,19.50
2022-09-03T03:19:02.528Z,19.50
2022-09-03T03:19:14.236Z,19.50
2022-09-03T03:19:26.092Z,19.50
2022-09-03T03:19:37.828Z,19.50
2022-09-03T03:19:49.579Z,19.50
2022-09-03T03:20:01.297Z,19.50
2022-09-03T03:20:13.200Z,19.50
2022-09-03T03:20:25.070Z,19.50
2022-09-03T03:20:37.041Z,19.50
2022-09-03T03:20:49.059Z,19.50
2022-09-03T03:21:11.533Z,19.50
2022-09-03T03:21:23.294Z,19.50
2022-09-03T03:21:35.063Z,19.50
2022-09-03T03:21:46.817Z,19.50
2022-09-03T03:21:58.664Z,19.50
2022-09-03T03:22:10.447Z,19.50
2022-09-03T03:22:22.113Z,19.50
2022-09-03T03:22:34.084Z,19.50
2022-09-03T03:22:45.860Z,19.50
2022-09-03T03:22:57.574Z,19.50
2022-09-03T03:23:09.735Z,19.50
2022-09-03T03:23:21.532Z,19.50
2022-09-03T03:23:33.897Z,19.50
2022-09-03T03:23:45.653Z,19.50
2022-09-03T03:23:57.361Z,19.50
2022-09-03T03:24:09.234Z,19.50
2022-09-03T03:24:21.168Z,19.50
2022-09-03T03:24:33.235Z,19.50
2022-09-03T03:24:45.048Z,19.50
2022-09-03T03:24:57.902Z,19.50
2022-09-03T03:25:10.108Z,19.60
2022-09-03T03:25:21.849Z,19.60
2022-09-03T03:25:34.588Z,19.60
2022-09-03T03:25:46.363Z,19.60
2022-09-03T03:26:04.738Z,19.60
2022-09-03T03:26:20.390Z,19.60
2022-09-03T03:26:32.244Z,19.60
2022-09-03T03:26:43.964Z,19.60
2022-09-03T03:26:58.060Z,19.60
2022-09-03T03:27:11.203Z,19.60
2022-09-03T03:27:23.732Z,19.60
2022-09-03T03:27:36.087Z,19.60
2022-09-03T03:27:49.065Z,19.60
2022-09-03T03:28:01.144Z,19.60
2022-09-03T03:28:13.832Z,19.60
2022-09-03T03:28:27.101Z,19.60
2022-09-03T03:28:38.951Z,19.60
2022-09-03T03:28:51.289Z,19.60
2022-09-03T03:29:06.159Z,19.60
2022-09-03T03:29:18.017Z,19.60
2022-09-03T03:29:29.855Z,19.60
2022-09-03T03:29:41.594Z,19.60
2022-09-03T03:29:54.960Z,19.60
2022-09-03T03:30:09.909Z,19.60
2022-09-03T03:30:21.644Z,19.60
2022-09-03T03:30:33.757Z,19.50
2022-09-03T03:30:48.458Z,19.50
2022-09-03T03:31:10.046Z,19.50
2022-09-03T03:31:22.579Z,19.50
2022-09-03T03:31:34.434Z,19.50
2022-09-03T03:31:46.204Z,19.50
2022-09-03T03:31:58.108Z,19.50
2022-09-03T03:32:09.966Z,19.50
2022-09-03T03:32:21.758Z,19.50
2022-09-03T03:32:33.569Z,19.50
2022-09-03T03:32:45.376Z,19.50
2022-09-03T03:32:57.299Z,19.50
2022-09-03T03:33:10.078Z,19.50
2022-09-03T03:33:22.334Z,19.50
2022-09-03T03:33:35.802Z,19.50
2022-09-03T03:33:54.597Z,19.50
2022-09-03T03:34:06.357Z,19.50
2022-09-03T03:34:18.057Z,19.50
2022-09-03T03:34:29.744Z,19.50
2022-09-03T03:34:41.480Z,19.50
2022-09-03T03:34:53.246Z,19.40
2022-09-03T03:35:05.597Z,19.40
2022-09-03T03:35:17.772Z,19.40
2022-09-03T03:35:29.879Z,19.40
2022-09-03T03:35:42.734Z,19.40
2022-09-03T03:35:54.854Z,19.40
2022-09-03T03:36:08.137Z,19.40
2022-09-03T03:36:20.236Z,19.40
2022-09-03T03:36:32.746Z,19.40
2022-09-03T03:36:44.500Z,19.40
2022-09-03T03:36:56.533Z,19.40
2022-09-03T03:37:08.216Z,19.40
2022-09-03T03:37:19.919Z,19.40
2022-09-03T03:37:31.878Z,19.40
2022-09-03T03:37:43.604Z,19.40
2022-09-03T03:37:58.146Z,19.40
2022-09-03T03:38:10.124Z,19.40
2022-09-03T03:38:21.897Z,19.40
2022-09-03T03:38:34.200Z,19.40
2022-09-03T03:38:46.247Z,19.40
2022-09-03T03:38:59.004Z,19.50
2022-09-03T03:39:11.426Z,19.40
2022-09-03T03:39:23.236Z,19.40
2022-09-03T03:39:34.992Z,19.40
2022-09-03T03:39:46.902Z,19.40
2022-09-03T03:39:58.923Z,19.40
2022-09-03T03:40:11.292Z,19.40
2022-09-03T03:40:23.041Z,19.40
2022-09-03T03:40:35.141Z,19.40
2022-09-03T03:40:47.546Z,19.50
2022-09-03T03:40:59.517Z,19.40
2022-09-03T03:41:19.264Z,19.40
2022-09-03T03:41:35.362Z,19.40
2022-09-03T03:41:47.411Z,19.40
2022-09-03T03:41:59.153Z,19.40
2022-09-03T03:42:10.876Z,19.50
2022-09-03T03:42:22.624Z,19.50
2022-09-03T03:42:34.807Z,19.40
2022-09-03T03:42:46.760Z,19.40
2022-09-03T03:42:58.677Z,19.50
2022-09-03T03:43:11.934Z,19.40
2022-09-03T03:43:23.632Z,19.50
2022-09-03T03:43:35.386Z,19.50
2022-09-03T03:43:47.370Z,19.50
2022-09-03T03:44:00.614Z,19.40
2022-09-03T03:44:12.433Z,19.50
2022-09-03T03:44:24.166Z,19.50
2022-09-03T03:44:35.907Z,19.50
2022-09-03T03:44:47.677Z,19.50
2022-09-03T03:44:59.448Z,19.50
2022-09-03T03:45:11.232Z,19.50
2022-09-03T03:45:23.026Z,19.50
2022-09-03T03:45:34.885Z,19.50
2022-09-03T03:45:59.193Z,19.50
2022-09-03T03:46:11.186Z,19.50
2022-09-03T03:46:23.478Z,19.50
2022-09-03T03:46:39.747Z,19.50
2022-09-03T03:46:51.581Z,19.50
2022-09-03T03:47:06.055Z,19.40
2022-09-03T03:47:18.225Z,19.40
2022-09-03T03:47:33.097Z,19.40
2022-09-03T03:47:44.779Z,19.40
2022-09-03T03:47:59.559Z,19.40
2022-09-03T03:48:11.453Z,19.40
2022-09-03T03:48:23.172Z,19.40
2022-09-03T03:48:36.960Z,19.40
2022-09-03T03:48:49.661Z,19.40
2022-09-03T03:49:01.582Z,19.40
2022-09-03T03:49:13.360Z,19.40
2022-09-03T03:49:25.154Z,19.40
2022-09-03T03:49:36.870Z,19.50
2022-09-03T03:49:48.563Z,19.40
2022-09-03T03:50:00.297Z,19.40
2022-09-03T03:50:12.080Z,19.40
2022-09-03T03:50:23.838Z,19.40
2022-09-03T03:50:35.793Z,19.40
2022-09-03T03:50:47.560Z,19.40
2022-09-03T03:51:07.455Z,19.40
2022-09-03T03:51:19.257Z,19.40
2022-09-03T03:51:31.021Z,19.40
2022-09-03T03:51:42.780Z,19.40
2022-09-03T03:51:54.538Z,19.40
2022-09-03T03:52:06.260Z,19.40
2022-09-03T03:52:17.921Z,19.40
2022-09-03T03:52:29.678Z,19.40
2022-09-03T03:52:41.394Z,19.40
2022-09-03T03:52:53.157Z,19.40
2022-09-03T03:53:04.841Z,19.50
2022-09-03T03:53:16.568Z,19.40
2022-09-03T03:53:28.301Z,19.50
2022-09-03T03:53:40.094Z,19.50
2022-09-03T03:53:54.476Z,19.50
2022-09-03T03:54:06.385Z,19.50
2022-09-03T03:54:18.101Z,19.50
2022-09-03T03:54:30.764Z,19.50
2022-09-03T03:54:42.597Z,19.50
2022-09-03T03:54:54.552Z,19.50
2022-09-03T03:55:07.577Z,19.50
2022-09-03T03:55:19.333Z,19.50
2022-09-03T03:55:35.077Z,19.50
2022-09-03T03:56:01.474Z,19.50
2022-09-03T03:56:14.273Z,19.50
2022-09-03T03:56:26.417Z,19.40
2022-09-03T03:56:38.443Z,19.40
2022-09-03T03:56:55.572Z,19.40
2022-09-03T03:57:07.631Z,19.40
2022-09-03T03:57:19.592Z,19.50
2022-09-03T03:57:32.184Z,19.40
2022-09-03T03:57:44.085Z,19.40
2022-09-03T03:57:55.798Z,19.40
2022-09-03T03:58:07.668Z,19.40
2022-09-03T03:58:19.410Z,19.40
2022-09-03T03:58:32.486Z,19.40
2022-09-03T03:58:44.370Z,19.40
2022-09-03T03:58:56.452Z,19.40
2022-09-03T03:59:08.292Z,19.40
2022-09-03T03:59:20.065Z,19.50
2022-09-03T03:59:31.744Z,19.40
2022-09-03T03:59:43.515Z,19.40
2022-09-03T03:59:55.206Z,19.40
2022-09-03T04:00:07.518Z,19.50
2022-09-03T04:00:19.333Z,19.40
2022-09-03T04:00:31.151Z,19.40
2022-09-03T04:00:42.948Z,19.50
2022-09-03T04:00:54.733Z,19.40
2022-09-03T04:01:08.017Z,19.40
2022-09-03T04:01:21.994Z,19.40
2022-09-03T04:01:33.956Z,19.40
2022-09-03T04:01:46.214Z,19.40
2022-09-03T04:01:58.033Z,19.40
2022-09-03T04:02:09.834Z,19.40
2022-09-03T04:02:21.704Z,19.40
2022-09-03T04:02:38.475Z,19.40
2022-09-03T04:02:50.883Z,19.40
2022-09-03T04:03:02.725Z,19.40
2022-09-03T04:03:14.464Z,19.40
2022-09-03T04:03:26.144Z,19.30
2022-09-03T04:03:38.034Z,19.40
2022-09-03T04:03:49.847Z,19.40
2022-09-03T04:04:01.723Z,19.30
2022-09-03T04:04:14.645Z,19.40
2022-09-03T04:04:26.426Z,19.30
2022-09-03T04:04:38.206Z,19.30
2022-09-03T04:04:49.967Z,19.30
2022-09-03T04:05:01.709Z,19.30
2022-09-03T04:05:13.583Z,19.40
2022-09-03T04:05:25.302Z,19.40
2022-09-03T04:05:42.016Z,19.30
2022-09-03T04:06:00.751Z,19.30
2022-09-03T04:06:13.731Z,19.40
2022-09-03T04:06:25.461Z,19.30
2022-09-03T04:06:37.190Z,19.30
2022-09-03T04:06:48.969Z,19.30
2022-09-03T04:07:00.689Z,19.30
2022-09-03T04:07:12.442Z,19.30
2022-09-03T04:07:24.194Z,19.40
2022-09-03T04:07:35.915Z,19.40
2022-09-03T04:07:47.696Z,19.30
2022-09-03T04:08:02.484Z,19.30
2022-09-03T04:08:14.169Z,19.30
2022-09-03T04:08:26.391Z,19.40
2022-09-03T04:08:40.485Z,19.30
2022-09-03T04:08:52.201Z,19.40